Latest Weather Observations for Jandakot

IDW60801

Issued at 2:34 am WST Sunday 28 August 2016 (issued every 30 minutes, with the page automatically refreshed every 10 minutes)

About weather observations | Map of weather stations | Latest weather observations for WA | Other Formats
Station Details ID: 009172 Name: JANDAKOT AERO Lat: -32.10 Lon: 115.88 Height: 30.0 m
Data from the previous 72 hours. | See also: Recent months at Jandakot
Date/Time
WST
Temp
°C
App
Temp
°C
Dew
Point
°C
Rel
Hum
%
Delta-T
°C
Wind Press
QNH
hPa
Press
MSL
hPa
Rain since
9am
mm
Dir  Spd
km/h
Gust
km/h
Spd
kts
Gust
kts
28/02:30am 11.5 6.3 7.1 74 2.1 SSW 24 33 13 18 1007.7 1007.7 8.0
28/02:00am 11.5 6.1 7.8 78 1.8 SSW 26 33 14 18 1007.4 1007.4 8.0
28/01:30am 11.4 7.2 8.4 82 1.5 SSW 20 28 11 15 1007.4 1007.4 8.0
28/01:00am 11.8 7.1 7.9 77 1.9 SSW 22 37 12 20 1007.3 1007.3 8.0
28/12:30am 11.5 7.5 8.9 84 1.3 SSW 20 28 11 15 1007.3 1007.3 8.0
28/12:00am 11.1 7.4 9.5 90 0.8 SW 19 24 10 13 1007.0 1007.0 8.0
 
Date/Time
WST
Temp
°C
App
Temp
°C
Dew
Point
°C
Rel
Hum
%
Delta-T
°C
Wind Press
QNH
hPa
Press
MSL
hPa
Rain since
9am
mm
Dir  Spd
km/h
Gust
km/h
Spd
kts
Gust
kts
27/11:30pm 11.4 7.1 9.4 87 1.0 SW 22 39 12 21 1007.0 1007.0 7.8
27/11:00pm 11.3 5.8 9.3 87 1.0 SW 28 41 15 22 1006.9 1006.9 7.6
27/10:30pm 11.1 6.1 9.5 90 0.8 SW 26 35 14 19 1006.9 1006.9 7.6
27/10:00pm 11.7 6.6 9.3 85 1.2 SW 26 41 14 22 1006.8 1006.8 7.2
27/09:38pm 12.1 6.6 9.1 82 1.5 SW 28 46 15 25 1006.9 1006.9 7.2
27/09:30pm 11.9 8.1 9.7 86 1.1 SW 20 32 11 17 1006.6 1006.6 7.2
27/09:00pm 11.7 6.4 9.9 89 0.9 SW 28 44 15 24 1006.5 1006.5 6.4
27/08:37pm 12.2 6.8 9.4 83 1.4 SW 28 50 15 27 1006.4 1006.4 6.2
27/08:30pm 12.2 7.2 9.7 85 1.3 SW 26 35 14 19 1006.1 1006.1 6.2
27/08:11pm 12.5 6.8 9.8 83 1.4 SW 30 52 16 28 1006.0 1006.0 5.8
27/08:00pm 12.8 6.4 9.5 80 1.7 SW 33 46 18 25 1005.7 1005.7 5.6
27/07:41pm 12.0 6.5 10.5 90 0.8 WSW 30 43 16 23 1005.5 1005.5 5.6
27/07:30pm 12.0 6.2 10.9 93 0.6 SW 32 56 17 30 1005.5 1005.5 5.0
27/07:28pm 12.0 6.6 10.9 93 0.6 SW 30 56 16 30 1005.5 1005.5 4.8
27/07:27pm 12.0 6.6 10.9 93 0.6 SW 30 56 16 30 1005.4 1005.4 4.8
27/07:00pm 12.6 6.7 10.3 86 1.2 WSW 32 39 17 21 1004.9 1004.9 2.8
27/06:46pm 13.2 6.2 9.9 80 1.7 WSW 37 57 20 31 1004.8 1004.8 2.8
27/06:30pm 13.4 6.9 9.1 75 2.2 WSW 33 46 18 25 1004.5 1004.5 2.8
27/06:03pm 13.4 6.7 8.2 71 2.6 WSW 33 54 18 29 1004.2 1004.2 2.8
27/06:00pm 13.4 7.1 9.1 75 2.2 WSW 32 46 17 25 1004.3 1004.3 2.8
27/05:32pm 12.9 7.2 9.8 81 1.6 WSW 30 52 16 28 1004.0 1004.0 2.8
27/05:30pm 12.7 7.5 10.2 85 1.3 WSW 28 41 15 22 1004.0 1004.0 2.8
27/05:11pm 14.0 7.6 9.5 74 2.3 WSW 33 54 18 29 1003.7 1003.7 2.2
27/05:00pm 14.1 6.5 9.0 71 2.6 W 39 50 21 27 1003.7 1003.7 2.2
27/04:30pm 14.0 7.6 9.5 74 2.3 W 33 48 18 26 1003.7 1003.7 2.2
27/04:06pm 14.6 7.1 7.8 63 3.4 WSW 37 56 20 30 1003.5 1003.5 2.2
27/04:00pm 14.4 7.4 8.5 67 3.0 W 35 48 19 26 1003.5 1003.5 2.2
27/03:30pm 13.2 7.2 10.1 81 1.6 W 32 54 17 29 1003.6 1003.6 2.2
27/03:02pm 13.8 8.1 9.7 76 2.1 W 30 57 16 31 1003.6 1003.6 1.6
27/03:00pm 14.1 8.6 9.0 71 2.6 WSW 28 39 15 21 1003.5 1003.5 1.4
27/02:46pm 13.8 8.0 9.5 75 2.2 W 30 48 16 26 1003.5 1003.5 1.4
27/02:30pm 13.9 8.9 9.4 74 2.3 W 26 37 14 20 1003.5 1003.5 1.2
27/02:15pm 14.3 6.2 8.8 69 2.8 WSW 41 67 22 36 1003.6 1003.6 1.2
27/02:00pm 15.5 7.8 7.3 58 4.1 WSW 37 50 20 27 1003.3 1003.3 1.2
27/01:30pm 14.6 8.3 9.6 72 2.6 WSW 33 50 18 27 1003.6 1003.6 1.2
27/01:12pm 15.8 8.1 8.6 62 3.7 WSW 39 57 21 31 1003.5 1003.5 1.2
27/01:00pm 15.5 8.1 8.2 62 3.7 WSW 37 50 20 27 1003.4 1003.4 1.2
27/12:30pm 15.3 8.0 8.9 65 3.3 WSW 37 50 20 27 1003.4 1003.4 1.2
27/12:00pm 15.7 9.1 10.0 69 3.0 WSW 35 46 19 25 1003.2 1003.2 1.2
27/11:45am 15.2 9.6 11.5 78 2.0 WSW 32 57 17 31 1003.1 1003.1 1.2
27/11:30am 14.8 8.9 12.4 85 1.3 WSW 35 46 19 25 1002.9 1002.9 1.2
27/11:03am 14.4 7.4 12.4 88 1.1 WNW 41 61 22 33 1002.4 1002.3 1.2
27/11:00am 14.5 7.4 12.1 85 1.3 WNW 41 61 22 33 1002.3 1002.2 1.2
27/10:57am 15.8 9.0 11.8 77 2.2 WNW 39 61 21 33 1002.1 1002.0 0.8
27/10:30am 16.6 10.4 11.5 72 2.8 NW 35 50 19 27 1002.5 1002.4 0.2
27/10:21am 16.2 11.2 11.0 71 2.8 NW 28 50 15 27 1002.5 1002.4 0.2
27/10:00am 15.4 10.1 11.1 75 2.3 NW 30 39 16 21 1002.9 1002.9 0.2
27/09:30am 14.1 9.8 10.9 81 1.7 WNW 24 32 13 17 1003.0 1003.0 0.2
27/09:00am 12.7 6.8 10.4 86 1.2 NW 32 50 17 27 1003.2 1003.2 33.6
27/08:42am 13.7 8.6 10.7 82 1.6 WNW 28 46 15 25 1003.1 1003.1 33.0
27/08:30am 14.4 9.9 10.0 75 2.3 NW 24 35 13 19 1003.0 1003.0 32.2
27/08:00am 13.2 10.0 9.9 80 1.7 NW 17 24 9 13 1003.0 1003.0 32.2
27/07:35am 13.2 9.6 8.4 72 2.4 NW 17 44 9 24 1003.1 1003.1 32.0
27/07:30am 12.1 10.3 9.5 84 1.3 N 9 15 5 8 1002.9 1002.9 31.8
27/07:00am 11.0 9.0 10.0 93 0.5 NNE 11 15 6 8 1002.9 1002.9 31.8
27/06:30am 11.0 9.5 10.4 96 0.3 NNE 9 13 5 7 1002.9 1002.9 31.8
27/06:00am 11.1 9.1 10.3 95 0.4 NE 11 15 6 8 1002.4 1002.3 31.8
27/05:30am 11.6 8.4 10.0 90 0.8 NNW 17 24 9 13 1003.2 1003.2 31.8
27/05:00am 11.3 10.1 10.3 94 0.5 E 7 9 4 5 1002.7 1002.7 31.0
27/04:30am 11.7 8.4 9.5 86 1.1 NW 17 24 9 13 1003.7 1003.7 29.0
27/04:00am 12.1 8.0 10.0 87 1.1 NW 22 30 12 16 1003.5 1003.5 28.2
27/03:30am 12.4 10.0 11.3 93 0.6 NNW 15 20 8 11 1003.5 1003.5 27.2
27/03:00am 12.2 9.8 11.4 95 0.4 NW 15 17 8 9 1003.8 1003.8 26.0
27/02:30am 12.2 11.1 11.8 97 0.2 NNW 9 13 5 7 1004.1 1004.1 22.8
27/02:00am 12.1 12.2 11.5 96 0.3 S 2 6 1 3 1003.8 1003.8 21.2
27/01:30am 12.4 11.2 11.5 94 0.5 WSW 9 15 5 8 1004.7 1004.7 20.2
27/01:00am 12.7 10.0 11.6 93 0.6 W 17 22 9 12 1005.7 1005.7 18.0
27/12:30am 12.9 10.7 12.0 94 0.5 W 15 26 8 14 1004.8 1004.8 16.6
27/12:00am 13.0 13.0 12.4 96 0.3 WSW 4 7 2 4 1005.1 1005.1 14.6
 
Date/Time
WST
Temp
°C
App
Temp
°C
Dew
Point
°C
Rel
Hum
%
Delta-T
°C
Wind Press
QNH
hPa
Press
MSL
hPa
Rain since
9am
mm
Dir  Spd
km/h
Gust
km/h
Spd
kts
Gust
kts
26/11:30pm 13.0 10.5 12.3 95 0.4 SW 17 24 9 13 1005.5 1005.5 13.8
26/11:18pm 13.1 11.0 12.5 96 0.3 WSW 15 28 8 15 1006.3 1006.3 12.8
26/11:00pm 12.9 12.3 12.3 96 0.3 W 7 13 4 7 1006.3 1006.3 11.2
26/10:50pm 12.9 11.9 12.2 95 0.4 W 9 13 5 7 1006.4 1006.4 10.4
26/10:30pm 12.7 10.1 12.0 95 0.4 WSW 17 24 9 13 1005.5 1005.5 9.8
26/10:27pm 12.7 9.7 12.0 95 0.4 WSW 19 24 10 13 1005.7 1005.7 9.8
26/10:14pm 12.8 9.3 12.1 95 0.4 SW 22 33 12 18 1005.9 1005.9 9.8
26/10:00pm 12.8 7.2 12.1 95 0.4 WSW 33 48 18 26 1006.9 1006.9 9.2
26/09:54pm 12.9 7.9 12.2 95 0.4 WSW 30 48 16 26 1007.2 1007.2 9.0
26/09:30pm 13.4 7.9 12.3 93 0.6 W 33 48 18 26 1006.7 1006.7 7.4
26/09:21pm 13.5 8.1 12.2 92 0.7 WSW 32 43 17 23 1006.9 1006.9 6.4
26/09:00pm 13.7 8.6 13.2 97 0.3 WSW 32 50 17 27 1006.6 1006.6 5.6
26/08:51pm 13.8 9.5 13.1 96 0.4 W 28 48 15 26 1006.9 1006.9 5.2
26/08:47pm 14.3 10.4 13.2 93 0.6 W 26 37 14 20 1006.9 1006.9 5.0
26/08:38pm 15.7 9.7 14.3 91 0.8 NW 39 54 21 29 1006.6 1006.6 2.8
26/08:36pm 16.6 10.5 15.1 91 0.9 NNW 41 54 22 29 1006.4 1006.4 2.0
26/08:30pm 16.8 11.4 14.9 88 1.1 N 37 54 20 29 1005.7 1005.7 1.6
26/08:08pm 17.9 12.7 14.6 81 1.9 NNW 35 54 19 29 1005.9 1005.9 1.0
26/08:00pm 17.8 13.3 14.9 83 1.7 N 32 43 17 23 1006.0 1006.0 1.0
26/07:30pm 17.2 13.9 15.0 87 1.3 N 26 37 14 20 1006.3 1006.3 1.0
26/07:00pm 16.9 13.1 14.6 86 1.3 N 28 39 15 21 1006.7 1006.7 1.0
26/06:30pm 16.5 12.0 14.8 90 1.0 NNW 32 44 17 24 1007.1 1007.1 1.0
26/06:00pm 16.9 10.6 14.5 86 1.4 NW 41 61 22 33 1007.6 1007.6 0.2
26/05:33pm 19.1 14.2 11.3 60 4.3 NNW 28 50 15 27 1006.7 1006.7 0.0
26/05:30pm 19.3 14.7 10.9 58 4.6 NNW 26 35 14 19 1006.8 1006.8 0.0
26/05:03pm 19.9 13.8 9.8 52 5.4 NNW 32 50 17 27 1006.7 1006.7 0.0
26/05:00pm 20.0 14.3 9.7 51 5.5 NNW 30 43 16 23 1006.7 1006.7 0.0
26/04:52pm 19.9 13.8 9.8 52 5.4 NNW 32 50 17 27 1006.8 1006.8 0.0
26/04:30pm 19.8 13.5 9.7 52 5.4 NNW 33 46 18 25 1007.0 1007.0 0.0
26/04:00pm 20.0 12.9 9.5 50 5.6 NNW 37 52 20 28 1007.2 1007.2 0.0
26/03:30pm 20.6 13.8 7.1 41 6.9 NNW 32 50 17 27 1007.5 1007.5 0.0
26/03:21pm 20.7 14.1 6.2 39 7.3 NNW 30 50 16 27 1007.5 1007.5 0.0
26/03:00pm 20.8 15.0 4.3 34 8.0 N 24 33 13 18 1007.8 1007.8 0.0
26/02:30pm 20.6 13.9 3.7 33 8.1 N 28 39 15 21 1008.1 1008.1 0.0
26/02:00pm 20.6 14.2 3.4 32 8.2 N 26 33 14 18 1008.2 1008.2 0.0
26/01:30pm 20.0 13.9 2.7 31 8.1 N 24 35 13 19 1009.0 1009.0 0.0
26/01:00pm 20.2 14.1 2.7 31 8.2 N 24 39 13 21 1009.4 1009.4 0.0
26/12:30pm 20.3 14.2 2.9 31 8.2 N 24 32 13 17 1010.0 1010.0 0.0
26/12:00pm 20.0 13.2 3.0 32 8.0 N 28 35 15 19 1010.6 1010.6 0.0
26/11:30am 19.5 12.5 2.1 31 8.0 N 28 39 15 21 1010.9 1010.9 0.0
26/11:00am 19.6 11.7 2.3 31 8.0 N 33 44 18 24 1011.6 1011.6 0.0
26/10:30am 18.7 11.4 2.7 34 7.4 N 30 43 16 23 1012.0 1012.0 0.0
26/10:00am 18.0 10.4 2.8 36 7.0 N 32 41 17 22 1012.5 1012.5 0.0
26/09:30am 16.9 9.3 2.9 39 6.4 NNE 32 37 17 20 1012.9 1012.9 0.0
26/09:00am 16.4 9.9 2.7 40 6.2 N 26 33 14 18 1013.3 1013.3 0.0
26/08:30am 15.5 10.2 3.2 43 5.6 N 20 32 11 17 1013.6 1013.6 0.0
26/08:00am 15.1 9.7 2.6 43 5.6 N 20 30 11 16 1013.5 1013.5 0.0
26/07:30am 14.4 8.7 3.0 46 5.1 NNE 22 28 12 15 1013.3 1013.3 0.0
26/07:00am 14.1 8.4 2.9 47 5.0 NNE 22 28 12 15 1013.2 1013.2 0.0
26/06:30am 14.3 9.1 2.6 45 5.2 NNE 19 24 10 13 1013.3 1013.3 0.0
26/06:00am 14.7 9.3 2.3 43 5.5 NNE 20 28 11 15 1013.3 1013.3 0.0
26/05:30am 14.5 9.2 2.9 45 5.2 NNE 20 26 11 14 1013.3 1013.3 0.0
26/05:00am 14.6 9.2 2.7 44 5.3 NNE 20 24 11 13 1013.7 1013.7 0.0
26/04:30am 15.0 9.6 2.7 43 5.5 NNE 20 28 11 15 1013.8 1013.8 0.0
26/04:00am 14.9 9.6 2.9 44 5.4 NE 20 26 11 14 1013.8 1013.8 0.0
26/03:30am 14.9 9.8 2.9 44 5.4 NE 19 26 10 14 1014.3 1014.3 0.0
26/03:00am 14.9 9.6 2.9 44 5.4 NNE 20 24 11 13 1014.5 1014.5 0.0
26/02:30am 14.9 9.2 2.9 44 5.4 NE 22 30 12 16 1014.9 1014.9 0.0
26/02:00am 15.3 8.8 2.6 42 5.7 NE 26 33 14 18 1015.3 1015.3 0.0
26/01:30am 14.8 9.7 3.0 45 5.3 NE 19 28 10 15 1016.0 1016.0 0.0
26/01:00am 12.9 9.1 4.1 55 4.0 NE 13 15 7 8 1016.7 1016.7 0.0
26/12:30am 12.5 9.3 4.9 60 3.5 NE 11 13 6 7 1016.7 1016.7 0.0
26/12:00am 13.1 10.1 4.1 54 4.1 NE 9 11 5 6 1017.2 1017.2 0.0
 
Date/Time
WST
Temp
°C
App
Temp
°C
Dew
Point
°C
Rel
Hum
%
Delta-T
°C
Wind Press
QNH
hPa
Press
MSL
hPa
Rain since
9am
mm
Dir  Spd
km/h
Gust
km/h
Spd
kts
Gust
kts
25/11:30pm 13.7 9.1 3.8 51 4.5 NE 17 22 9 12 1017.3 1017.3 0.0
25/11:00pm 13.5 10.2 4.3 53 4.2 ENE 11 15 6 8 1017.7 1017.7 0.0
25/10:30pm 13.6 9.9 4.4 53 4.2 ENE 13 15 7 8 1018.4 1018.4 0.0
25/10:00pm 13.1 9.8 4.6 56 3.9 ENE 11 15 6 8 1018.7 1018.7 0.0
25/09:30pm 13.0 9.3 4.7 57 3.8 ENE 13 15 7 8 1018.9 1018.9 0.0
25/09:00pm 13.2 10.0 5.2 58 3.7 ENE 11 15 6 8 1018.9 1018.9 0.0
25/08:30pm 13.5 10.4 5.4 58 3.8 ENE 11 13 6 7 1019.0 1019.0 0.0
25/08:00pm 14.4 11.3 5.5 55 4.2 ENE 11 15 6 8 1019.3 1019.3 0.0
25/07:30pm 14.7 10.8 5.4 53 4.4 ENE 15 20 8 11 1018.8 1018.8 0.0
25/07:00pm 14.6 11.6 6.0 56 4.1 E 11 15 6 8 1019.0 1019.0 0.0
25/06:30pm 15.4 11.9 5.5 51 4.7 ENE 13 17 7 9 1018.9 1018.9 0.0
25/06:00pm 16.0 11.7 5.3 49 5.1 ENE 17 24 9 13 1019.2 1019.2 0.0
25/05:30pm 16.3 11.6 5.2 47 5.3 ENE 19 26 10 14 1018.8 1018.8 0.0
25/05:00pm 16.6 11.6 4.8 45 5.6 ENE 20 28 11 15 1018.9 1018.9 0.0
25/04:30pm 17.7 11.9 4.4 41 6.3 NE 24 32 13 17 1019.3 1019.3 0.0
25/04:00pm 18.3 12.9 4.7 40 6.5 NE 22 33 12 18 1019.2 1019.2 0.0
25/03:30pm 18.5 13.5 4.4 39 6.7 NE 20 28 11 15 1019.5 1019.5 0.0
25/03:00pm 18.2 12.8 4.3 39 6.6 ENE 22 32 12 17 1019.7 1019.7 0.0
25/02:30pm 18.2 13.1 4.3 39 6.6 ENE 20 28 11 15 1020.2 1020.2 0.0
25/02:00pm 18.1 13.4 5.0 42 6.3 ENE 19 26 10 14 1020.7 1020.7 0.0
25/01:30pm 17.9 13.0 5.0 42 6.2 ENE 20 32 11 17 1021.2 1021.2 0.0
25/01:00pm 17.4 12.4 4.5 42 6.1 NE 20 28 11 15 1021.8 1021.8 0.0
25/12:30pm 17.5 12.8 5.2 44 5.9 NE 19 26 10 14 1022.4 1022.4 0.0
25/12:00pm 16.9 11.8 4.3 43 5.9 NE 20 28 11 15 1023.0 1023.0 0.0
25/11:30am 16.7 12.1 5.7 48 5.3 ENE 19 26 10 14 1023.8 1023.8 0.0
25/11:00am 15.2 9.9 5.0 50 4.8 NE 22 28 12 15 1024.3 1024.3 0.0
25/10:30am 14.7 9.1 5.3 53 4.4 ENE 24 30 13 16 1024.9 1024.9 0.0
25/10:00am 13.6 7.1 4.7 55 4.1 ENE 28 35 15 19 1025.2 1025.2 0.0
25/09:30am 12.9 6.8 4.6 57 3.8 NE 26 35 14 19 1025.4 1025.4 0.0
25/09:00am 12.2 6.6 5.5 63 3.1 NE 24 33 13 18 1025.6 1025.6 0.0
25/08:30am 11.1 5.8 5.2 67 2.7 NE 22 33 12 18 1025.5 1025.5 0.0
25/08:00am 10.4 5.2 5.3 70 2.3 NE 22 30 12 16 1025.5 1025.5 0.0
25/07:30am 8.9 6.1 5.3 78 1.6 ENE 9 13 5 7 1025.3 1025.3 0.0
25/07:00am 7.9 5.3 4.2 77 1.6 ENE 7 11 4 6 1025.2 1025.2 0.0
25/06:30am 7.5 4.5 4.3 80 1.4 ENE 9 11 5 6 1024.8 1024.8 0.0
25/06:00am 8.2 5.6 4.0 75 1.8 NE 7 13 4 7 1024.5 1024.5 0.0
25/05:30am 8.9 4.0 4.3 73 2.0 ENE 19 28 10 15 1024.3 1024.3 0.0
25/05:00am 9.1 4.0 4.1 71 2.2 ENE 20 33 11 18 1024.1 1024.1 0.0
25/04:30am 9.3 4.7 3.8 68 2.4 ENE 17 28 9 15 1023.9 1023.9 0.0
25/04:00am 9.2 4.6 3.6 68 2.4 ENE 17 20 9 11 1023.9 1023.9 0.0
25/03:30am 9.4 5.1 3.4 66 2.6 ENE 15 24 8 13 1023.9 1023.9 0.0
25/03:00am 9.6 4.9 3.3 65 2.7 ENE 17 28 9 15 1023.9 1023.9 0.0

Other Formats:

Comma delimited format used in spreadsheet applications
http://www.bom.gov.au/fwo/IDW60801/IDW60801.94609.axf

JavaScript Object Notation format (JSON) in row-major order
http://www.bom.gov.au/fwo/IDW60801/IDW60801.94609.json